sensor_id;sensor_type;location;lat;lon;timestamp;P1;durP1;ratioP1;P2;durP2;ratioP2
71910;SDS011;59783;52.232;5.170;2022-08-02T00:02:13;9.90;;;3.83;;
71910;SDS011;59783;52.232;5.170;2022-08-02T00:04:38;8.00;;;3.88;;
71910;SDS011;59783;52.232;5.170;2022-08-02T00:07:03;7.95;;;4.18;;
71910;SDS011;59783;52.232;5.170;2022-08-02T00:09:29;6.95;;;2.30;;
71910;SDS011;59783;52.232;5.170;2022-08-02T00:11:54;8.27;;;4.25;;
71910;SDS011;59783;52.232;5.170;2022-08-02T00:14:19;7.25;;;2.38;;
71910;SDS011;59783;52.232;5.170;2022-08-02T00:16:45;11.23;;;3.80;;
71910;SDS011;59783;52.232;5.170;2022-08-02T00:19:10;8.85;;;4.20;;
71910;SDS011;59783;52.232;5.170;2022-08-02T00:21:36;9.93;;;3.97;;
71910;SDS011;59783;52.232;5.170;2022-08-02T00:24:01;10.43;;;3.88;;
71910;SDS011;59783;52.232;5.170;2022-08-02T00:26:26;7.72;;;4.82;;
71910;SDS011;59783;52.232;5.170;2022-08-02T00:28:52;7.53;;;2.70;;
71910;SDS011;59783;52.232;5.170;2022-08-02T00:31:17;6.68;;;3.95;;
71910;SDS011;59783;52.232;5.170;2022-08-02T00:33:42;7.15;;;4.10;;
71910;SDS011;59783;52.232;5.170;2022-08-02T00:36:08;9.07;;;4.43;;
71910;SDS011;59783;52.232;5.170;2022-08-02T00:38:33;10.18;;;4.47;;
71910;SDS011;59783;52.232;5.170;2022-08-02T00:40:58;8.23;;;4.05;;
71910;SDS011;59783;52.232;5.170;2022-08-02T00:43:24;7.47;;;4.70;;
71910;SDS011;59783;52.232;5.170;2022-08-02T00:45:49;8.60;;;4.30;;
71910;SDS011;59783;52.232;5.170;2022-08-02T00:48:14;12.10;;;4.50;;
71910;SDS011;59783;52.232;5.170;2022-08-02T00:50:40;11.10;;;4.78;;
71910;SDS011;59783;52.232;5.170;2022-08-02T00:53:05;8.52;;;4.35;;
71910;SDS011;59783;52.232;5.170;2022-08-02T00:55:33;7.43;;;4.10;;
71910;SDS011;59783;52.232;5.170;2022-08-02T00:57:58;10.38;;;4.75;;
71910;SDS011;59783;52.232;5.170;2022-08-02T01:00:23;10.95;;;4.45;;
71910;SDS011;59783;52.232;5.170;2022-08-02T01:02:49;8.75;;;4.05;;
71910;SDS011;59783;52.232;5.170;2022-08-02T01:05:15;8.15;;;3.55;;
71910;SDS011;59783;52.232;5.170;2022-08-02T01:07:40;10.38;;;4.40;;
71910;SDS011;59783;52.232;5.170;2022-08-02T01:10:06;8.18;;;4.10;;
71910;SDS011;59783;52.232;5.170;2022-08-02T01:12:32;10.85;;;4.40;;
71910;SDS011;59783;52.232;5.170;2022-08-02T01:14:58;10.38;;;3.95;;
71910;SDS011;59783;52.232;5.170;2022-08-02T01:17:33;12.82;;;4.40;;
71910;SDS011;59783;52.232;5.170;2022-08-02T01:26:13;7.43;;;4.20;;
71910;SDS011;59783;52.232;5.170;2022-08-02T01:28:48;11.02;;;4.57;;
71910;SDS011;59783;52.232;5.170;2022-08-02T01:32:18;9.75;;;4.15;;
71910;SDS011;59783;52.232;5.170;2022-08-02T01:34:23;10.07;;;4.63;;
71910;SDS011;59783;52.232;5.170;2022-08-02T01:36:55;8.15;;;4.50;;
71910;SDS011;59783;52.232;5.170;2022-08-02T01:39:26;11.27;;;3.90;;
71910;SDS011;59783;52.232;5.170;2022-08-02T01:41:53;12.07;;;5.40;;
71910;SDS011;59783;52.232;5.170;2022-08-02T01:44:20;8.60;;;4.43;;
71910;SDS011;59783;52.232;5.170;2022-08-02T01:46:46;8.75;;;4.07;;
71910;SDS011;59783;52.232;5.170;2022-08-02T01:49:14;8.25;;;4.50;;
71910;SDS011;59783;52.232;5.170;2022-08-02T01:51:42;9.95;;;5.63;;
71910;SDS011;59783;52.232;5.170;2022-08-02T01:54:28;7.18;;;4.10;;
71910;SDS011;59783;52.232;5.170;2022-08-02T01:56:55;8.90;;;4.53;;
71910;SDS011;59783;52.232;5.170;2022-08-02T01:59:21;10.10;;;5.78;;
71910;SDS011;59783;52.232;5.170;2022-08-02T02:01:48;9.45;;;4.32;;
71910;SDS011;59783;52.232;5.170;2022-08-02T02:04:15;11.02;;;4.32;;
71910;SDS011;59783;52.232;5.170;2022-08-02T02:06:41;9.98;;;4.72;;
71910;SDS011;59783;52.232;5.170;2022-08-02T02:09:08;8.20;;;2.50;;
71910;SDS011;59783;52.232;5.170;2022-08-02T02:11:33;9.02;;;3.33;;
71910;SDS011;59783;52.232;5.170;2022-08-02T02:13:59;7.05;;;2.67;;
71910;SDS011;59783;52.232;5.170;2022-08-02T02:16:26;8.48;;;4.38;;
71910;SDS011;59783;52.232;5.170;2022-08-02T02:18:52;7.07;;;2.75;;
71910;SDS011;59783;52.232;5.170;2022-08-02T02:21:18;10.00;;;3.90;;
71910;SDS011;59783;52.232;5.170;2022-08-02T02:23:43;10.32;;;3.83;;
71910;SDS011;59783;52.232;5.170;2022-08-02T02:26:09;10.75;;;4.63;;
71910;SDS011;59783;52.232;5.170;2022-08-02T02:28:36;9.80;;;4.18;;
71910;SDS011;59783;52.232;5.170;2022-08-02T02:31:11;12.25;;;2.65;;
71910;SDS011;59783;52.232;5.170;2022-08-02T02:33:43;10.77;;;4.00;;
71910;SDS011;59783;52.232;5.170;2022-08-02T02:36:11;9.10;;;4.85;;
71910;SDS011;59783;52.232;5.170;2022-08-02T02:38:37;9.02;;;3.97;;
71910;SDS011;59783;52.232;5.170;2022-08-02T02:41:04;12.63;;;4.38;;
71910;SDS011;59783;52.232;5.170;2022-08-02T02:43:31;12.73;;;3.83;;
71910;SDS011;59783;52.232;5.170;2022-08-02T02:45:57;9.77;;;4.50;;
71910;SDS011;59783;52.232;5.170;2022-08-02T02:48:24;7.32;;;4.07;;
71910;SDS011;59783;52.232;5.170;2022-08-02T02:50:50;8.23;;;4.05;;
71910;SDS011;59783;52.232;5.170;2022-08-02T02:53:16;10.48;;;3.90;;
71910;SDS011;59783;52.232;5.170;2022-08-02T02:55:42;9.55;;;4.35;;
71910;SDS011;59783;52.232;5.170;2022-08-02T02:58:08;8.98;;;4.22;;
71910;SDS011;59783;52.232;5.170;2022-08-02T03:00:33;9.15;;;4.15;;
71910;SDS011;59783;52.232;5.170;2022-08-02T03:03:17;9.93;;;4.15;;
71910;SDS011;59783;52.232;5.170;2022-08-02T03:05:42;7.70;;;4.38;;
71910;SDS011;59783;52.232;5.170;2022-08-02T03:08:09;9.77;;;4.03;;
71910;SDS011;59783;52.232;5.170;2022-08-02T03:10:34;9.68;;;4.10;;
71910;SDS011;59783;52.232;5.170;2022-08-02T03:12:59;10.43;;;4.40;;
71910;SDS011;59783;52.232;5.170;2022-08-02T03:15:25;8.13;;;3.92;;
71910;SDS011;59783;52.232;5.170;2022-08-02T03:17:51;9.65;;;4.50;;
71910;SDS011;59783;52.232;5.170;2022-08-02T03:20:17;9.13;;;4.15;;
71910;SDS011;59783;52.232;5.170;2022-08-02T03:22:44;7.60;;;3.72;;
71910;SDS011;59783;52.232;5.170;2022-08-02T03:25:10;6.80;;;2.10;;
71910;SDS011;59783;52.232;5.170;2022-08-02T03:27:37;38.72;;;5.38;;
71910;SDS011;59783;52.232;5.170;2022-08-02T03:30:04;8.23;;;4.05;;
71910;SDS011;59783;52.232;5.170;2022-08-02T03:32:31;8.30;;;2.20;;
71910;SDS011;59783;52.232;5.170;2022-08-02T03:34:57;11.25;;;4.13;;
71910;SDS011;59783;52.232;5.170;2022-08-02T03:37:22;8.88;;;4.05;;
71910;SDS011;59783;52.232;5.170;2022-08-02T03:39:48;10.32;;;4.65;;
71910;SDS011;59783;52.232;5.170;2022-08-02T03:42:13;7.25;;;3.92;;
71910;SDS011;59783;52.232;5.170;2022-08-02T03:44:39;8.38;;;3.75;;
71910;SDS011;59783;52.232;5.170;2022-08-02T03:47:06;8.82;;;3.67;;
71910;SDS011;59783;52.232;5.170;2022-08-02T03:49:31;9.98;;;4.00;;
71910;SDS011;59783;52.232;5.170;2022-08-02T03:51:58;8.40;;;3.90;;
71910;SDS011;59783;52.232;5.170;2022-08-02T03:54:24;11.25;;;4.10;;
71910;SDS011;59783;52.232;5.170;2022-08-02T03:56:50;9.48;;;3.92;;
71910;SDS011;59783;52.232;5.170;2022-08-02T03:59:16;9.43;;;3.90;;
71910;SDS011;59783;52.232;5.170;2022-08-02T04:01:41;10.23;;;4.18;;
71910;SDS011;59783;52.232;5.170;2022-08-02T04:04:07;9.85;;;4.40;;
71910;SDS011;59783;52.232;5.170;2022-08-02T04:06:32;8.80;;;3.50;;
71910;SDS011;59783;52.232;5.170;2022-08-02T04:08:58;8.20;;;4.00;;
71910;SDS011;59783;52.232;5.170;2022-08-02T04:11:23;8.02;;;3.60;;
71910;SDS011;59783;52.232;5.170;2022-08-02T04:13:54;6.97;;;3.72;;
71910;SDS011;59783;52.232;5.170;2022-08-02T04:16:22;9.50;;;3.03;;
71910;SDS011;59783;52.232;5.170;2022-08-02T04:18:55;9.77;;;3.65;;
71910;SDS011;59783;52.232;5.170;2022-08-02T04:21:23;7.20;;;4.13;;
71910;SDS011;59783;52.232;5.170;2022-08-02T04:23:50;7.43;;;3.70;;
71910;SDS011;59783;52.232;5.170;2022-08-02T04:26:15;9.65;;;3.80;;
71910;SDS011;59783;52.232;5.170;2022-08-02T04:28:40;7.22;;;4.25;;
71910;SDS011;59783;52.232;5.170;2022-08-02T04:31:06;11.40;;;3.92;;
71910;SDS011;59783;52.232;5.170;2022-08-02T04:33:33;10.02;;;5.07;;
71910;SDS011;59783;52.232;5.170;2022-08-02T04:35:59;7.30;;;3.72;;
71910;SDS011;59783;52.232;5.170;2022-08-02T04:38:24;8.23;;;3.97;;
71910;SDS011;59783;52.232;5.170;2022-08-02T04:40:53;10.55;;;4.40;;
71910;SDS011;59783;52.232;5.170;2022-08-02T04:43:20;9.30;;;2.35;;
71910;SDS011;59783;52.232;5.170;2022-08-02T04:45:47;9.45;;;4.22;;
71910;SDS011;59783;52.232;5.170;2022-08-02T04:48:13;10.95;;;4.60;;
71910;SDS011;59783;52.232;5.170;2022-08-02T04:50:39;8.43;;;4.47;;
71910;SDS011;59783;52.232;5.170;2022-08-02T04:53:04;8.32;;;4.90;;
71910;SDS011;59783;52.232;5.170;2022-08-02T04:55:29;9.07;;;3.83;;
71910;SDS011;59783;52.232;5.170;2022-08-02T04:57:55;8.25;;;2.20;;
71910;SDS011;59783;52.232;5.170;2022-08-02T05:00:21;10.57;;;4.53;;
71910;SDS011;59783;52.232;5.170;2022-08-02T05:02:47;9.13;;;2.38;;
71910;SDS011;59783;52.232;5.170;2022-08-02T05:05:13;9.00;;;3.97;;
71910;SDS011;59783;52.232;5.170;2022-08-02T05:07:39;8.48;;;4.70;;
71910;SDS011;59783;52.232;5.170;2022-08-02T05:10:04;8.05;;;4.10;;
71910;SDS011;59783;52.232;5.170;2022-08-02T05:12:30;11.90;;;4.70;;
71910;SDS011;59783;52.232;5.170;2022-08-02T05:14:55;10.55;;;3.75;;
71910;SDS011;59783;52.232;5.170;2022-08-02T05:17:20;10.50;;;3.90;;
71910;SDS011;59783;52.232;5.170;2022-08-02T05:19:46;7.80;;;4.15;;
71910;SDS011;59783;52.232;5.170;2022-08-02T05:22:11;9.10;;;4.47;;
71910;SDS011;59783;52.232;5.170;2022-08-02T05:24:36;10.98;;;4.57;;
71910;SDS011;59783;52.232;5.170;2022-08-02T05:27:02;8.20;;;3.78;;
71910;SDS011;59783;52.232;5.170;2022-08-02T05:29:27;7.35;;;3.95;;
71910;SDS011;59783;52.232;5.170;2022-08-02T05:31:53;9.45;;;3.45;;
71910;SDS011;59783;52.232;5.170;2022-08-02T05:34:18;6.68;;;3.65;;
71910;SDS011;59783;52.232;5.170;2022-08-02T05:36:44;9.45;;;3.90;;
71910;SDS011;59783;52.232;5.170;2022-08-02T05:39:09;9.75;;;3.63;;
71910;SDS011;59783;52.232;5.170;2022-08-02T05:41:34;10.05;;;4.47;;
71910;SDS011;59783;52.232;5.170;2022-08-02T05:44:00;6.70;;;3.70;;
71910;SDS011;59783;52.232;5.170;2022-08-02T05:46:25;8.60;;;2.60;;
71910;SDS011;59783;52.232;5.170;2022-08-02T05:48:51;9.38;;;4.32;;
71910;SDS011;59783;52.232;5.170;2022-08-02T05:51:27;8.48;;;4.07;;
71910;SDS011;59783;52.232;5.170;2022-08-02T05:53:55;8.82;;;4.43;;
71910;SDS011;59783;52.232;5.170;2022-08-02T05:56:32;13.50;;;4.75;;
71910;SDS011;59783;52.232;5.170;2022-08-02T06:01:37;9.75;;;2.83;;
71910;SDS011;59783;52.232;5.170;2022-08-02T06:04:05;14.65;;;4.35;;
71910;SDS011;59783;52.232;5.170;2022-08-02T06:06:33;13.35;;;4.10;;
71910;SDS011;59783;52.232;5.170;2022-08-02T06:08:59;9.57;;;4.30;;
71910;SDS011;59783;52.232;5.170;2022-08-02T06:11:31;9.25;;;4.78;;
71910;SDS011;59783;52.232;5.170;2022-08-02T06:13:59;12.68;;;5.35;;
71910;SDS011;59783;52.232;5.170;2022-08-02T06:16:26;11.88;;;4.70;;
71910;SDS011;59783;52.232;5.170;2022-08-02T06:18:51;9.73;;;4.47;;
71910;SDS011;59783;52.232;5.170;2022-08-02T06:21:17;9.65;;;5.20;;
71910;SDS011;59783;52.232;5.170;2022-08-02T06:23:46;10.93;;;4.75;;
71910;SDS011;59783;52.232;5.170;2022-08-02T06:26:12;12.52;;;4.78;;
71910;SDS011;59783;52.232;5.170;2022-08-02T06:28:37;13.20;;;5.22;;
71910;SDS011;59783;52.232;5.170;2022-08-02T06:31:06;14.23;;;5.30;;
71910;SDS011;59783;52.232;5.170;2022-08-02T06:33:32;9.40;;;5.82;;
71910;SDS011;59783;52.232;5.170;2022-08-02T06:36:07;13.95;;;5.88;;
71910;SDS011;59783;52.232;5.170;2022-08-02T06:39:00;14.15;;;5.78;;
71910;SDS011;59783;52.232;5.170;2022-08-02T06:41:28;11.48;;;6.28;;
71910;SDS011;59783;52.232;5.170;2022-08-02T06:43:59;9.95;;;4.32;;
71910;SDS011;59783;52.232;5.170;2022-08-02T06:46:25;9.63;;;5.88;;
71910;SDS011;59783;52.232;5.170;2022-08-02T06:48:51;16.33;;;6.85;;
71910;SDS011;59783;52.232;5.170;2022-08-02T06:51:16;13.73;;;5.07;;
71910;SDS011;59783;52.232;5.170;2022-08-02T06:53:42;13.30;;;6.38;;
71910;SDS011;59783;52.232;5.170;2022-08-02T06:56:07;15.15;;;7.95;;
71910;SDS011;59783;52.232;5.170;2022-08-02T06:58:33;16.65;;;7.47;;
71910;SDS011;59783;52.232;5.170;2022-08-02T07:00:58;14.38;;;7.70;;
71910;SDS011;59783;52.232;5.170;2022-08-02T07:03:23;13.68;;;8.27;;
71910;SDS011;59783;52.232;5.170;2022-08-02T07:05:52;12.32;;;7.82;;
71910;SDS011;59783;52.232;5.170;2022-08-02T07:08:18;15.60;;;6.15;;
71910;SDS011;59783;52.232;5.170;2022-08-02T07:10:43;14.30;;;7.68;;
71910;SDS011;59783;52.232;5.170;2022-08-02T07:13:09;13.13;;;7.32;;
71910;SDS011;59783;52.232;5.170;2022-08-02T07:15:35;12.13;;;7.30;;
71910;SDS011;59783;52.232;5.170;2022-08-02T07:18:01;14.32;;;9.00;;
71910;SDS011;59783;52.232;5.170;2022-08-02T07:20:26;15.05;;;7.75;;
71910;SDS011;59783;52.232;5.170;2022-08-02T07:22:51;13.55;;;8.88;;
71910;SDS011;59783;52.232;5.170;2022-08-02T07:25:17;11.88;;;8.10;;
71910;SDS011;59783;52.232;5.170;2022-08-02T07:27:42;14.27;;;9.20;;
71910;SDS011;59783;52.232;5.170;2022-08-02T07:30:08;15.88;;;6.90;;
71910;SDS011;59783;52.232;5.170;2022-08-02T07:32:33;14.70;;;9.05;;
71910;SDS011;59783;52.232;5.170;2022-08-02T07:34:59;16.67;;;10.18;;
71910;SDS011;59783;52.232;5.170;2022-08-02T07:37:28;14.23;;;9.05;;
71910;SDS011;59783;52.232;5.170;2022-08-02T07:39:55;14.40;;;8.73;;
71910;SDS011;59783;52.232;5.170;2022-08-02T07:42:21;17.02;;;9.80;;
71910;SDS011;59783;52.232;5.170;2022-08-02T07:44:46;19.00;;;10.43;;
71910;SDS011;59783;52.232;5.170;2022-08-02T07:47:11;23.48;;;11.65;;
71910;SDS011;59783;52.232;5.170;2022-08-02T07:49:37;18.42;;;10.30;;
71910;SDS011;59783;52.232;5.170;2022-08-02T07:52:02;17.33;;;10.77;;
71910;SDS011;59783;52.232;5.170;2022-08-02T07:54:28;14.95;;;8.38;;
71910;SDS011;59783;52.232;5.170;2022-08-02T07:56:53;17.30;;;10.50;;
71910;SDS011;59783;52.232;5.170;2022-08-02T07:59:19;18.88;;;12.50;;
71910;SDS011;59783;52.232;5.170;2022-08-02T08:01:45;21.15;;;12.73;;
71910;SDS011;59783;52.232;5.170;2022-08-02T08:04:10;21.27;;;12.95;;
71910;SDS011;59783;52.232;5.170;2022-08-02T08:06:36;17.17;;;9.10;;
71910;SDS011;59783;52.232;5.170;2022-08-02T08:09:01;21.02;;;12.90;;
71910;SDS011;59783;52.232;5.170;2022-08-02T08:11:27;19.52;;;11.38;;
71910;SDS011;59783;52.232;5.170;2022-08-02T08:13:52;18.17;;;10.57;;
71910;SDS011;59783;52.232;5.170;2022-08-02T08:16:17;20.25;;;10.52;;
71910;SDS011;59783;52.232;5.170;2022-08-02T08:18:43;19.13;;;11.30;;
71910;SDS011;59783;52.232;5.170;2022-08-02T08:21:08;18.67;;;11.27;;
71910;SDS011;59783;52.232;5.170;2022-08-02T08:23:34;17.33;;;10.02;;
71910;SDS011;59783;52.232;5.170;2022-08-02T08:26:00;17.88;;;10.73;;
71910;SDS011;59783;52.232;5.170;2022-08-02T08:28:25;16.80;;;9.35;;
71910;SDS011;59783;52.232;5.170;2022-08-02T08:30:51;14.75;;;8.70;;
71910;SDS011;59783;52.232;5.170;2022-08-02T08:33:16;16.08;;;8.82;;
71910;SDS011;59783;52.232;5.170;2022-08-02T08:35:42;15.32;;;8.98;;
71910;SDS011;59783;52.232;5.170;2022-08-02T08:38:07;15.40;;;8.00;;
71910;SDS011;59783;52.232;5.170;2022-08-02T08:40:33;16.83;;;8.38;;
71910;SDS011;59783;52.232;5.170;2022-08-02T08:42:58;16.55;;;8.05;;
71910;SDS011;59783;52.232;5.170;2022-08-02T08:45:24;15.80;;;7.03;;
71910;SDS011;59783;52.232;5.170;2022-08-02T08:47:50;13.55;;;9.13;;
71910;SDS011;59783;52.232;5.170;2022-08-02T08:50:19;12.68;;;7.30;;
71910;SDS011;59783;52.232;5.170;2022-08-02T08:52:47;13.18;;;7.10;;
71910;SDS011;59783;52.232;5.170;2022-08-02T08:55:13;11.40;;;6.32;;
71910;SDS011;59783;52.232;5.170;2022-08-02T08:57:40;12.50;;;7.90;;
71910;SDS011;59783;52.232;5.170;2022-08-02T09:00:07;13.52;;;7.80;;
71910;SDS011;59783;52.232;5.170;2022-08-02T09:02:33;14.15;;;8.35;;
71910;SDS011;59783;52.232;5.170;2022-08-02T09:04:59;13.85;;;7.20;;
71910;SDS011;59783;52.232;5.170;2022-08-02T09:07:25;13.10;;;7.03;;
71910;SDS011;59783;52.232;5.170;2022-08-02T09:09:50;12.32;;;8.23;;
71910;SDS011;59783;52.232;5.170;2022-08-02T09:12:18;12.55;;;7.07;;
71910;SDS011;59783;52.232;5.170;2022-08-02T09:14:46;11.32;;;7.13;;
71910;SDS011;59783;52.232;5.170;2022-08-02T09:17:11;10.70;;;6.70;;
71910;SDS011;59783;52.232;5.170;2022-08-02T09:19:37;13.35;;;7.05;;
71910;SDS011;59783;52.232;5.170;2022-08-02T09:22:07;12.60;;;7.32;;
71910;SDS011;59783;52.232;5.170;2022-08-02T09:24:44;10.77;;;7.18;;
71910;SDS011;59783;52.232;5.170;2022-08-02T09:27:12;13.85;;;8.57;;
71910;SDS011;59783;52.232;5.170;2022-08-02T09:29:38;12.38;;;6.20;;
71910;SDS011;59783;52.232;5.170;2022-08-02T09:32:03;10.35;;;7.00;;
71910;SDS011;59783;52.232;5.170;2022-08-02T09:34:42;10.98;;;6.88;;
71910;SDS011;59783;52.232;5.170;2022-08-02T09:37:20;14.68;;;8.63;;
71910;SDS011;59783;52.232;5.170;2022-08-02T09:39:46;14.18;;;8.80;;
71910;SDS011;59783;52.232;5.170;2022-08-02T09:42:11;12.55;;;8.70;;
71910;SDS011;59783;52.232;5.170;2022-08-02T09:44:38;14.00;;;7.53;;
71910;SDS011;59783;52.232;5.170;2022-08-02T09:47:12;16.52;;;9.15;;
71910;SDS011;59783;52.232;5.170;2022-08-02T09:49:44;14.48;;;8.60;;
71910;SDS011;59783;52.232;5.170;2022-08-02T09:52:10;14.45;;;9.30;;
71910;SDS011;59783;52.232;5.170;2022-08-02T09:54:35;18.00;;;10.63;;
71910;SDS011;59783;52.232;5.170;2022-08-02T09:57:03;17.02;;;10.88;;
71910;SDS011;59783;52.232;5.170;2022-08-02T09:59:29;16.38;;;10.80;;
71910;SDS011;59783;52.232;5.170;2022-08-02T10:01:55;15.48;;;10.10;;
71910;SDS011;59783;52.232;5.170;2022-08-02T10:04:23;13.20;;;7.57;;
71910;SDS011;59783;52.232;5.170;2022-08-02T10:06:50;13.55;;;8.80;;
71910;SDS011;59783;52.232;5.170;2022-08-02T10:09:16;14.32;;;9.30;;
71910;SDS011;59783;52.232;5.170;2022-08-02T10:11:42;14.20;;;8.52;;
71910;SDS011;59783;52.232;5.170;2022-08-02T10:14:08;14.50;;;9.00;;
71910;SDS011;59783;52.232;5.170;2022-08-02T10:16:35;15.40;;;9.35;;
71910;SDS011;59783;52.232;5.170;2022-08-02T10:21:41;13.82;;;8.25;;
71910;SDS011;59783;52.232;5.170;2022-08-02T10:24:14;13.93;;;9.15;;
71910;SDS011;59783;52.232;5.170;2022-08-02T10:26:42;11.30;;;7.72;;
71910;SDS011;59783;52.232;5.170;2022-08-02T10:29:08;11.32;;;7.70;;
71910;SDS011;59783;52.232;5.170;2022-08-02T10:31:40;11.50;;;7.28;;
71910;SDS011;59783;52.232;5.170;2022-08-02T10:34:26;10.85;;;6.00;;
71910;SDS011;59783;52.232;5.170;2022-08-02T10:36:55;10.02;;;6.10;;
71910;SDS011;59783;52.232;5.170;2022-08-02T10:39:21;9.88;;;6.45;;
71910;SDS011;59783;52.232;5.170;2022-08-02T10:41:50;9.30;;;5.95;;
71910;SDS011;59783;52.232;5.170;2022-08-02T10:44:26;9.35;;;5.45;;
71910;SDS011;59783;52.232;5.170;2022-08-02T10:46:52;8.85;;;4.90;;
71910;SDS011;59783;52.232;5.170;2022-08-02T10:49:51;9.25;;;5.40;;
71910;SDS011;59783;52.232;5.170;2022-08-02T10:52:22;9.05;;;5.38;;
71910;SDS011;59783;52.232;5.170;2022-08-02T10:54:50;9.43;;;4.75;;
71910;SDS011;59783;52.232;5.170;2022-08-02T10:57:28;9.30;;;4.57;;
71910;SDS011;59783;52.232;5.170;2022-08-02T11:02:47;7.90;;;4.28;;
71910;SDS011;59783;52.232;5.170;2022-08-02T11:05:14;8.05;;;4.45;;
71910;SDS011;59783;52.232;5.170;2022-08-02T11:07:56;6.35;;;3.28;;
71910;SDS011;59783;52.232;5.170;2022-08-02T11:13:06;11.48;;;4.45;;
71910;SDS011;59783;52.232;5.170;2022-08-02T11:15:52;7.03;;;4.05;;
71910;SDS011;59783;52.232;5.170;2022-08-02T11:21:27;7.35;;;3.60;;
71910;SDS011;59783;52.232;5.170;2022-08-02T11:28:54;8.25;;;3.38;;
71910;SDS011;59783;52.232;5.170;2022-08-02T11:31:25;8.48;;;3.88;;
71910;SDS011;59783;52.232;5.170;2022-08-02T11:33:51;6.97;;;3.67;;
71910;SDS011;59783;52.232;5.170;2022-08-02T11:36:17;6.82;;;3.67;;
71910;SDS011;59783;52.232;5.170;2022-08-02T11:38:42;8.40;;;3.60;;
71910;SDS011;59783;52.232;5.170;2022-08-02T11:41:08;8.30;;;4.38;;
71910;SDS011;59783;52.232;5.170;2022-08-02T11:43:34;8.23;;;4.25;;
71910;SDS011;59783;52.232;5.170;2022-08-02T11:46:01;7.68;;;3.83;;
71910;SDS011;59783;52.232;5.170;2022-08-02T11:51:03;7.32;;;4.40;;
71910;SDS011;59783;52.232;5.170;2022-08-02T11:56:17;7.88;;;3.35;;
71910;SDS011;59783;52.232;5.170;2022-08-02T11:58:59;8.77;;;4.20;;
71910;SDS011;59783;52.232;5.170;2022-08-02T12:01:32;9.18;;;5.35;;
71910;SDS011;59783;52.232;5.170;2022-08-02T12:06:28;7.82;;;3.55;;
71910;SDS011;59783;52.232;5.170;2022-08-02T12:09:07;7.97;;;3.60;;
71910;SDS011;59783;52.232;5.170;2022-08-02T12:14:00;8.15;;;4.15;;
71910;SDS011;59783;52.232;5.170;2022-08-02T12:16:31;10.77;;;3.90;;
71910;SDS011;59783;52.232;5.170;2022-08-02T12:19:20;8.05;;;3.20;;
71910;SDS011;59783;52.232;5.170;2022-08-02T12:22:10;8.43;;;3.88;;
71910;SDS011;59783;52.232;5.170;2022-08-02T12:24:44;10.73;;;4.20;;
71910;SDS011;59783;52.232;5.170;2022-08-02T12:27:27;7.72;;;3.20;;
71910;SDS011;59783;52.232;5.170;2022-08-02T12:29:57;8.43;;;4.18;;
71910;SDS011;59783;52.232;5.170;2022-08-02T12:32:24;7.38;;;3.40;;
71910;SDS011;59783;52.232;5.170;2022-08-02T12:35:03;7.70;;;3.28;;
71910;SDS011;59783;52.232;5.170;2022-08-02T12:37:30;7.03;;;3.20;;
71910;SDS011;59783;52.232;5.170;2022-08-02T12:39:56;7.47;;;3.17;;
71910;SDS011;59783;52.232;5.170;2022-08-02T12:42:21;6.47;;;2.58;;
71910;SDS011;59783;52.232;5.170;2022-08-02T12:44:51;6.50;;;2.72;;
71910;SDS011;59783;52.232;5.170;2022-08-02T12:47:17;6.47;;;1.63;;
71910;SDS011;59783;52.232;5.170;2022-08-02T12:49:45;5.88;;;2.70;;
71910;SDS011;59783;52.232;5.170;2022-08-02T12:52:17;6.35;;;2.33;;
71910;SDS011;59783;52.232;5.170;2022-08-02T12:54:46;6.82;;;2.60;;
71910;SDS011;59783;52.232;5.170;2022-08-02T12:57:13;9.45;;;2.75;;
71910;SDS011;59783;52.232;5.170;2022-08-02T12:59:41;6.47;;;3.58;;
71910;SDS011;59783;52.232;5.170;2022-08-02T13:02:09;6.50;;;2.53;;
71910;SDS011;59783;52.232;5.170;2022-08-02T13:04:35;6.28;;;2.65;;
71910;SDS011;59783;52.232;5.170;2022-08-02T13:07:01;5.90;;;3.38;;
71910;SDS011;59783;52.232;5.170;2022-08-02T13:09:27;8.98;;;2.63;;
71910;SDS011;59783;52.232;5.170;2022-08-02T13:11:53;6.57;;;2.55;;
71910;SDS011;59783;52.232;5.170;2022-08-02T13:14:18;10.73;;;3.38;;
71910;SDS011;59783;52.232;5.170;2022-08-02T13:16:44;7.07;;;2.67;;
71910;SDS011;59783;52.232;5.170;2022-08-02T13:19:10;5.88;;;2.60;;
71910;SDS011;59783;52.232;5.170;2022-08-02T13:21:37;6.03;;;2.55;;
71910;SDS011;59783;52.232;5.170;2022-08-02T13:24:02;6.78;;;3.35;;
71910;SDS011;59783;52.232;5.170;2022-08-02T13:26:27;6.50;;;3.70;;
71910;SDS011;59783;52.232;5.170;2022-08-02T13:28:53;6.78;;;3.00;;
71910;SDS011;59783;52.232;5.170;2022-08-02T13:31:18;7.40;;;3.42;;
71910;SDS011;59783;52.232;5.170;2022-08-02T13:33:43;7.45;;;3.42;;
71910;SDS011;59783;52.232;5.170;2022-08-02T13:36:09;9.88;;;3.72;;
71910;SDS011;59783;52.232;5.170;2022-08-02T13:38:34;7.57;;;3.00;;
71910;SDS011;59783;52.232;5.170;2022-08-02T13:40:59;9.63;;;3.92;;
71910;SDS011;59783;52.232;5.170;2022-08-02T13:43:36;12.77;;;3.45;;
71910;SDS011;59783;52.232;5.170;2022-08-02T13:46:02;9.45;;;2.13;;
71910;SDS011;59783;52.232;5.170;2022-08-02T13:48:31;6.85;;;3.25;;
71910;SDS011;59783;52.232;5.170;2022-08-02T13:50:56;8.57;;;2.65;;
71910;SDS011;59783;52.232;5.170;2022-08-02T13:53:22;6.25;;;1.67;;
71910;SDS011;59783;52.232;5.170;2022-08-02T13:55:48;6.00;;;3.00;;
71910;SDS011;59783;52.232;5.170;2022-08-02T13:58:13;7.70;;;3.22;;
71910;SDS011;59783;52.232;5.170;2022-08-02T14:00:38;7.40;;;2.55;;
71910;SDS011;59783;52.232;5.170;2022-08-02T14:03:04;8.65;;;2.65;;
71910;SDS011;59783;52.232;5.170;2022-08-02T14:05:30;10.45;;;2.88;;
71910;SDS011;59783;52.232;5.170;2022-08-02T14:07:56;6.28;;;2.70;;
71910;SDS011;59783;52.232;5.170;2022-08-02T14:10:22;9.93;;;2.72;;
71910;SDS011;59783;52.232;5.170;2022-08-02T14:12:49;7.32;;;2.55;;
71910;SDS011;59783;52.232;5.170;2022-08-02T14:15:15;8.43;;;3.08;;
71910;SDS011;59783;52.232;5.170;2022-08-02T14:17:40;7.05;;;2.70;;
71910;SDS011;59783;52.232;5.170;2022-08-02T14:20:08;8.00;;;2.65;;
71910;SDS011;59783;52.232;5.170;2022-08-02T14:22:33;9.43;;;3.35;;
71910;SDS011;59783;52.232;5.170;2022-08-02T14:24:59;8.38;;;2.70;;
71910;SDS011;59783;52.232;5.170;2022-08-02T14:27:24;7.80;;;2.60;;
71910;SDS011;59783;52.232;5.170;2022-08-02T14:29:49;9.07;;;3.08;;
71910;SDS011;59783;52.232;5.170;2022-08-02T14:32:15;8.32;;;3.17;;
71910;SDS011;59783;52.232;5.170;2022-08-02T14:34:41;9.45;;;3.05;;
71910;SDS011;59783;52.232;5.170;2022-08-02T14:37:08;10.73;;;3.20;;
71910;SDS011;59783;52.232;5.170;2022-08-02T14:39:33;6.88;;;3.42;;
71910;SDS011;59783;52.232;5.170;2022-08-02T14:41:58;8.75;;;3.50;;
71910;SDS011;59783;52.232;5.170;2022-08-02T14:44:24;7.35;;;3.50;;
71910;SDS011;59783;52.232;5.170;2022-08-02T14:46:49;10.40;;;3.47;;
71910;SDS011;59783;52.232;5.170;2022-08-02T14:49:14;8.25;;;3.33;;
71910;SDS011;59783;52.232;5.170;2022-08-02T14:51:40;7.47;;;3.30;;
71910;SDS011;59783;52.232;5.170;2022-08-02T14:54:05;8.27;;;2.97;;
71910;SDS011;59783;52.232;5.170;2022-08-02T14:56:32;9.90;;;3.33;;
71910;SDS011;59783;52.232;5.170;2022-08-02T14:58:58;8.23;;;2.63;;
71910;SDS011;59783;52.232;5.170;2022-08-02T15:01:23;7.65;;;3.13;;
71910;SDS011;59783;52.232;5.170;2022-08-02T15:03:49;10.90;;;4.32;;
71910;SDS011;59783;52.232;5.170;2022-08-02T15:06:14;7.07;;;3.17;;
71910;SDS011;59783;52.232;5.170;2022-08-02T15:08:40;7.57;;;3.13;;
71910;SDS011;59783;52.232;5.170;2022-08-02T15:11:05;9.05;;;2.83;;
71910;SDS011;59783;52.232;5.170;2022-08-02T15:13:30;10.00;;;2.70;;
71910;SDS011;59783;52.232;5.170;2022-08-02T15:15:56;7.63;;;2.90;;
71910;SDS011;59783;52.232;5.170;2022-08-02T15:18:21;10.68;;;2.83;;